sensor_id;sensor_type;location;lat;lon;timestamp;P1;durP1;ratioP1;P2;durP2;ratioP2
57824;SDS011;43912;44.188;21.094;2023-04-03T00:00:49;28.80;;;22.05;;
57824;SDS011;43912;44.188;21.094;2023-04-03T00:03:16;29.33;;;23.33;;
57824;SDS011;43912;44.188;21.094;2023-04-03T00:05:42;29.45;;;22.55;;
57824;SDS011;43912;44.188;21.094;2023-04-03T00:08:08;33.13;;;24.00;;
57824;SDS011;43912;44.188;21.094;2023-04-03T00:10:35;28.40;;;22.45;;
57824;SDS011;43912;44.188;21.094;2023-04-03T00:13:02;30.05;;;24.10;;
57824;SDS011;43912;44.188;21.094;2023-04-03T00:15:28;29.38;;;22.95;;
57824;SDS011;43912;44.188;21.094;2023-04-03T00:17:54;29.85;;;23.52;;
57824;SDS011;43912;44.188;21.094;2023-04-03T00:20:20;33.67;;;25.10;;
57824;SDS011;43912;44.188;21.094;2023-04-03T00:22:46;33.67;;;25.88;;
57824;SDS011;43912;44.188;21.094;2023-04-03T00:25:12;34.28;;;26.08;;
57824;SDS011;43912;44.188;21.094;2023-04-03T00:27:38;30.35;;;24.50;;
57824;SDS011;43912;44.188;21.094;2023-04-03T00:30:06;31.50;;;25.92;;
57824;SDS011;43912;44.188;21.094;2023-04-03T00:32:32;33.88;;;25.27;;
57824;SDS011;43912;44.188;21.094;2023-04-03T00:34:58;33.80;;;27.50;;
57824;SDS011;43912;44.188;21.094;2023-04-03T00:37:25;31.17;;;26.25;;
57824;SDS011;43912;44.188;21.094;2023-04-03T00:39:51;34.90;;;25.88;;
57824;SDS011;43912;44.188;21.094;2023-04-03T00:42:17;32.75;;;26.15;;
57824;SDS011;43912;44.188;21.094;2023-04-03T00:47:13;28.90;;;22.20;;
57824;SDS011;43912;44.188;21.094;2023-04-03T00:49:41;26.63;;;21.92;;
57824;SDS011;43912;44.188;21.094;2023-04-03T00:52:09;25.00;;;20.20;;
57824;SDS011;43912;44.188;21.094;2023-04-03T00:54:37;23.05;;;19.02;;
57824;SDS011;43912;44.188;21.094;2023-04-03T00:57:05;24.33;;;20.10;;
57824;SDS011;43912;44.188;21.094;2023-04-03T00:59:33;24.15;;;18.20;;
57824;SDS011;43912;44.188;21.094;2023-04-03T01:02:00;26.17;;;20.02;;
57824;SDS011;43912;44.188;21.094;2023-04-03T01:06:52;34.40;;;27.38;;
57824;SDS011;43912;44.188;21.094;2023-04-03T01:09:20;28.20;;;23.25;;
57824;SDS011;43912;44.188;21.094;2023-04-03T01:11:47;30.55;;;24.13;;
57824;SDS011;43912;44.188;21.094;2023-04-03T01:14:13;26.45;;;21.33;;
57824;SDS011;43912;44.188;21.094;2023-04-03T01:16:39;29.45;;;22.30;;
57824;SDS011;43912;44.188;21.094;2023-04-03T01:19:06;26.60;;;20.42;;
57824;SDS011;43912;44.188;21.094;2023-04-03T01:26:32;30.33;;;22.48;;
57824;SDS011;43912;44.188;21.094;2023-04-03T01:29:00;21.45;;;17.80;;
57824;SDS011;43912;44.188;21.094;2023-04-03T01:31:28;18.80;;;16.13;;
57824;SDS011;43912;44.188;21.094;2023-04-03T01:33:55;18.38;;;14.52;;
57824;SDS011;43912;44.188;21.094;2023-04-03T01:36:23;20.90;;;15.23;;
57824;SDS011;43912;44.188;21.094;2023-04-03T01:38:50;21.17;;;16.05;;
57824;SDS011;43912;44.188;21.094;2023-04-03T01:41:16;20.98;;;15.70;;
57824;SDS011;43912;44.188;21.094;2023-04-03T01:43:43;21.95;;;14.85;;
57824;SDS011;43912;44.188;21.094;2023-04-03T01:46:09;21.10;;;15.60;;
57824;SDS011;43912;44.188;21.094;2023-04-03T01:48:35;21.38;;;16.80;;
57824;SDS011;43912;44.188;21.094;2023-04-03T01:51:01;21.50;;;16.00;;
57824;SDS011;43912;44.188;21.094;2023-04-03T01:53:27;21.42;;;16.88;;
57824;SDS011;43912;44.188;21.094;2023-04-03T01:55:53;21.17;;;15.93;;
57824;SDS011;43912;44.188;21.094;2023-04-03T01:58:19;22.90;;;16.17;;
57824;SDS011;43912;44.188;21.094;2023-04-03T02:00:45;18.52;;;15.30;;
57824;SDS011;43912;44.188;21.094;2023-04-03T02:03:11;16.25;;;13.52;;
57824;SDS011;43912;44.188;21.094;2023-04-03T02:05:37;18.20;;;14.43;;
57824;SDS011;43912;44.188;21.094;2023-04-03T02:08:04;21.38;;;15.48;;
57824;SDS011;43912;44.188;21.094;2023-04-03T02:10:30;20.52;;;13.23;;
57824;SDS011;43912;44.188;21.094;2023-04-03T02:12:56;15.07;;;12.75;;
57824;SDS011;43912;44.188;21.094;2023-04-03T02:15:22;17.20;;;12.63;;
57824;SDS011;43912;44.188;21.094;2023-04-03T02:17:48;14.75;;;9.88;;
57824;SDS011;43912;44.188;21.094;2023-04-03T02:20:14;14.98;;;10.40;;
57824;SDS011;43912;44.188;21.094;2023-04-03T02:22:40;16.63;;;11.48;;
57824;SDS011;43912;44.188;21.094;2023-04-03T02:25:06;18.58;;;12.18;;
57824;SDS011;43912;44.188;21.094;2023-04-03T02:27:32;17.23;;;12.27;;
57824;SDS011;43912;44.188;21.094;2023-04-03T02:29:58;18.38;;;12.05;;
57824;SDS011;43912;44.188;21.094;2023-04-03T02:32:24;13.55;;;9.48;;
57824;SDS011;43912;44.188;21.094;2023-04-03T02:34:52;14.82;;;9.00;;
57824;SDS011;43912;44.188;21.094;2023-04-03T02:37:18;18.23;;;14.23;;
57824;SDS011;43912;44.188;21.094;2023-04-03T02:39:44;15.60;;;12.55;;
57824;SDS011;43912;44.188;21.094;2023-04-03T02:42:10;18.38;;;12.75;;
57824;SDS011;43912;44.188;21.094;2023-04-03T02:44:36;19.55;;;13.68;;
57824;SDS011;43912;44.188;21.094;2023-04-03T02:47:03;17.83;;;13.68;;
57824;SDS011;43912;44.188;21.094;2023-04-03T02:49:30;16.15;;;12.93;;
57824;SDS011;43912;44.188;21.094;2023-04-03T02:51:56;19.15;;;13.60;;
57824;SDS011;43912;44.188;21.094;2023-04-03T03:00:17;17.98;;;15.02;;
57824;SDS011;43912;44.188;21.094;2023-04-03T03:02:43;17.92;;;14.38;;
57824;SDS011;43912;44.188;21.094;2023-04-03T03:05:09;22.30;;;14.88;;
57824;SDS011;43912;44.188;21.094;2023-04-03T03:07:35;23.35;;;13.93;;
57824;SDS011;43912;44.188;21.094;2023-04-03T03:10:01;17.48;;;14.23;;
57824;SDS011;43912;44.188;21.094;2023-04-03T03:12:27;17.42;;;13.98;;
57824;SDS011;43912;44.188;21.094;2023-04-03T03:14:53;16.83;;;13.40;;
57824;SDS011;43912;44.188;21.094;2023-04-03T03:17:19;17.83;;;14.48;;
57824;SDS011;43912;44.188;21.094;2023-04-03T03:19:46;21.05;;;14.25;;
57824;SDS011;43912;44.188;21.094;2023-04-03T03:22:12;17.90;;;13.93;;
57824;SDS011;43912;44.188;21.094;2023-04-03T03:24:38;18.13;;;13.65;;
57824;SDS011;43912;44.188;21.094;2023-04-03T03:27:04;22.88;;;15.45;;
57824;SDS011;43912;44.188;21.094;2023-04-03T03:29:30;20.60;;;14.35;;
57824;SDS011;43912;44.188;21.094;2023-04-03T03:31:56;22.60;;;14.63;;
57824;SDS011;43912;44.188;21.094;2023-04-03T03:34:22;19.17;;;16.02;;
57824;SDS011;43912;44.188;21.094;2023-04-03T03:36:48;22.27;;;16.80;;
57824;SDS011;43912;44.188;21.094;2023-04-03T03:39:14;24.17;;;16.85;;
57824;SDS011;43912;44.188;21.094;2023-04-03T03:41:40;18.70;;;15.55;;
57824;SDS011;43912;44.188;21.094;2023-04-03T03:44:06;17.85;;;14.45;;
57824;SDS011;43912;44.188;21.094;2023-04-03T03:46:33;24.60;;;17.17;;
57824;SDS011;43912;44.188;21.094;2023-04-03T03:48:59;22.50;;;17.88;;
57824;SDS011;43912;44.188;21.094;2023-04-03T03:51:25;24.02;;;16.25;;
57824;SDS011;43912;44.188;21.094;2023-04-03T03:53:51;19.83;;;14.40;;
57824;SDS011;43912;44.188;21.094;2023-04-03T03:56:17;16.83;;;12.73;;
57824;SDS011;43912;44.188;21.094;2023-04-03T03:58:43;20.13;;;13.55;;
57824;SDS011;43912;44.188;21.094;2023-04-03T04:01:09;18.50;;;12.25;;
57824;SDS011;43912;44.188;21.094;2023-04-03T04:03:35;14.70;;;10.93;;
57824;SDS011;43912;44.188;21.094;2023-04-03T04:06:02;14.90;;;11.60;;
57824;SDS011;43912;44.188;21.094;2023-04-03T04:08:28;19.80;;;13.32;;
57824;SDS011;43912;44.188;21.094;2023-04-03T04:10:54;20.33;;;13.18;;
57824;SDS011;43912;44.188;21.094;2023-04-03T04:13:20;20.55;;;17.40;;
57824;SDS011;43912;44.188;21.094;2023-04-03T04:15:47;20.73;;;14.77;;
57824;SDS011;43912;44.188;21.094;2023-04-03T04:18:13;16.02;;;13.27;;
57824;SDS011;43912;44.188;21.094;2023-04-03T04:20:39;19.30;;;14.85;;
57824;SDS011;43912;44.188;21.094;2023-04-03T04:23:05;14.88;;;11.90;;
57824;SDS011;43912;44.188;21.094;2023-04-03T04:25:31;16.38;;;12.05;;
57824;SDS011;43912;44.188;21.094;2023-04-03T04:27:57;16.67;;;12.82;;
57824;SDS011;43912;44.188;21.094;2023-04-03T04:30:23;14.20;;;12.15;;
57824;SDS011;43912;44.188;21.094;2023-04-03T04:32:49;13.57;;;11.68;;
57824;SDS011;43912;44.188;21.094;2023-04-03T04:35:16;16.50;;;13.52;;
57824;SDS011;43912;44.188;21.094;2023-04-03T04:37:42;16.55;;;14.57;;
57824;SDS011;43912;44.188;21.094;2023-04-03T04:40:08;17.70;;;15.80;;
57824;SDS011;43912;44.188;21.094;2023-04-03T04:42:35;16.08;;;14.38;;
57824;SDS011;43912;44.188;21.094;2023-04-03T04:45:01;17.90;;;14.88;;
57824;SDS011;43912;44.188;21.094;2023-04-03T04:47:28;20.77;;;16.00;;
57824;SDS011;43912;44.188;21.094;2023-04-03T04:49:54;17.95;;;16.05;;
57824;SDS011;43912;44.188;21.094;2023-04-03T04:52:20;18.35;;;16.05;;
57824;SDS011;43912;44.188;21.094;2023-04-03T04:54:46;18.85;;;15.65;;
57824;SDS011;43912;44.188;21.094;2023-04-03T04:57:12;19.85;;;16.35;;
57824;SDS011;43912;44.188;21.094;2023-04-03T04:59:38;18.88;;;16.27;;
57824;SDS011;43912;44.188;21.094;2023-04-03T05:02:04;20.27;;;18.05;;
57824;SDS011;43912;44.188;21.094;2023-04-03T05:04:30;20.23;;;17.77;;
57824;SDS011;43912;44.188;21.094;2023-04-03T05:06:56;22.45;;;19.83;;
57824;SDS011;43912;44.188;21.094;2023-04-03T05:09:22;27.50;;;24.60;;
57824;SDS011;43912;44.188;21.094;2023-04-03T05:11:48;34.08;;;29.10;;
57824;SDS011;43912;44.188;21.094;2023-04-03T05:14:14;38.10;;;33.70;;
57824;SDS011;43912;44.188;21.094;2023-04-03T05:16:40;39.97;;;35.55;;
57824;SDS011;43912;44.188;21.094;2023-04-03T05:19:07;44.63;;;38.38;;
57824;SDS011;43912;44.188;21.094;2023-04-03T05:21:33;41.92;;;36.67;;
57824;SDS011;43912;44.188;21.094;2023-04-03T05:23:59;44.13;;;36.08;;
57824;SDS011;43912;44.188;21.094;2023-04-03T05:26:27;44.45;;;36.63;;
57824;SDS011;43912;44.188;21.094;2023-04-03T05:28:54;44.33;;;35.83;;
57824;SDS011;43912;44.188;21.094;2023-04-03T05:31:20;42.65;;;35.90;;
57824;SDS011;43912;44.188;21.094;2023-04-03T05:33:46;42.40;;;35.28;;
57824;SDS011;43912;44.188;21.094;2023-04-03T05:36:12;41.08;;;36.60;;
57824;SDS011;43912;44.188;21.094;2023-04-03T05:38:38;42.60;;;36.67;;
57824;SDS011;43912;44.188;21.094;2023-04-03T05:41:05;42.08;;;35.20;;
57824;SDS011;43912;44.188;21.094;2023-04-03T05:43:31;38.55;;;33.80;;
57824;SDS011;43912;44.188;21.094;2023-04-03T05:45:58;39.80;;;34.42;;
57824;SDS011;43912;44.188;21.094;2023-04-03T05:48:24;39.53;;;34.38;;
57824;SDS011;43912;44.188;21.094;2023-04-03T05:50:51;39.75;;;34.47;;
57824;SDS011;43912;44.188;21.094;2023-04-03T05:53:25;40.28;;;35.10;;
57824;SDS011;43912;44.188;21.094;2023-04-03T05:58:51;37.67;;;32.25;;
57824;SDS011;43912;44.188;21.094;2023-04-03T06:01:17;38.88;;;31.15;;
57824;SDS011;43912;44.188;21.094;2023-04-03T06:03:43;33.60;;;29.95;;
57824;SDS011;43912;44.188;21.094;2023-04-03T06:06:11;32.55;;;29.02;;
57824;SDS011;43912;44.188;21.094;2023-04-03T06:08:38;33.22;;;29.42;;
57824;SDS011;43912;44.188;21.094;2023-04-03T06:14:08;31.60;;;25.98;;
57824;SDS011;43912;44.188;21.094;2023-04-03T06:16:35;35.60;;;27.77;;
57824;SDS011;43912;44.188;21.094;2023-04-03T06:19:02;36.08;;;29.17;;
57824;SDS011;43912;44.188;21.094;2023-04-03T06:21:29;32.85;;;27.17;;
57824;SDS011;43912;44.188;21.094;2023-04-03T06:23:55;34.20;;;27.15;;
57824;SDS011;43912;44.188;21.094;2023-04-03T06:26:21;34.45;;;28.33;;
57824;SDS011;43912;44.188;21.094;2023-04-03T06:28:47;36.45;;;28.98;;
57824;SDS011;43912;44.188;21.094;2023-04-03T06:31:13;35.28;;;29.15;;
57824;SDS011;43912;44.188;21.094;2023-04-03T06:33:40;34.88;;;28.20;;
57824;SDS011;43912;44.188;21.094;2023-04-03T06:36:06;34.42;;;28.55;;
57824;SDS011;43912;44.188;21.094;2023-04-03T06:38:33;35.03;;;29.05;;
57824;SDS011;43912;44.188;21.094;2023-04-03T06:40:59;34.58;;;28.52;;
57824;SDS011;43912;44.188;21.094;2023-04-03T06:43:25;36.83;;;29.60;;
57824;SDS011;43912;44.188;21.094;2023-04-03T06:45:51;35.50;;;29.05;;
57824;SDS011;43912;44.188;21.094;2023-04-03T06:48:17;40.45;;;30.45;;
57824;SDS011;43912;44.188;21.094;2023-04-03T06:50:44;43.03;;;34.15;;
57824;SDS011;43912;44.188;21.094;2023-04-03T06:53:10;38.80;;;29.67;;
57824;SDS011;43912;44.188;21.094;2023-04-03T06:55:37;40.28;;;30.67;;
57824;SDS011;43912;44.188;21.094;2023-04-03T06:58:03;38.10;;;32.33;;
57824;SDS011;43912;44.188;21.094;2023-04-03T07:00:29;37.55;;;28.25;;
57824;SDS011;43912;44.188;21.094;2023-04-03T07:02:56;35.88;;;30.45;;
57824;SDS011;43912;44.188;21.094;2023-04-03T07:05:23;38.15;;;28.35;;
57824;SDS011;43912;44.188;21.094;2023-04-03T07:07:49;38.88;;;29.55;;
57824;SDS011;43912;44.188;21.094;2023-04-03T07:10:16;32.60;;;25.75;;
57824;SDS011;43912;44.188;21.094;2023-04-03T07:12:42;33.55;;;27.10;;
57824;SDS011;43912;44.188;21.094;2023-04-03T07:15:09;33.28;;;28.25;;
57824;SDS011;43912;44.188;21.094;2023-04-03T07:17:35;31.13;;;27.33;;
57824;SDS011;43912;44.188;21.094;2023-04-03T07:20:02;37.40;;;31.83;;
57824;SDS011;43912;44.188;21.094;2023-04-03T07:22:28;36.30;;;28.80;;
57824;SDS011;43912;44.188;21.094;2023-04-03T07:24:55;33.45;;;27.52;;
57824;SDS011;43912;44.188;21.094;2023-04-03T07:27:21;34.53;;;29.20;;
57824;SDS011;43912;44.188;21.094;2023-04-03T07:29:47;39.53;;;30.83;;
57824;SDS011;43912;44.188;21.094;2023-04-03T07:32:13;37.10;;;31.45;;
57824;SDS011;43912;44.188;21.094;2023-04-03T07:34:40;35.72;;;30.95;;
57824;SDS011;43912;44.188;21.094;2023-04-03T07:37:06;36.97;;;31.92;;
57824;SDS011;43912;44.188;21.094;2023-04-03T07:39:46;34.88;;;28.48;;
57824;SDS011;43912;44.188;21.094;2023-04-03T07:42:13;33.50;;;27.77;;
57824;SDS011;43912;44.188;21.094;2023-04-03T07:44:39;35.58;;;28.88;;
57824;SDS011;43912;44.188;21.094;2023-04-03T07:47:06;32.78;;;28.40;;
57824;SDS011;43912;44.188;21.094;2023-04-03T07:49:32;35.17;;;28.33;;
57824;SDS011;43912;44.188;21.094;2023-04-03T07:51:59;34.28;;;28.38;;
57824;SDS011;43912;44.188;21.094;2023-04-03T07:54:25;37.50;;;30.90;;
57824;SDS011;43912;44.188;21.094;2023-04-03T07:56:52;33.08;;;29.48;;
57824;SDS011;43912;44.188;21.094;2023-04-03T07:59:18;36.22;;;31.77;;
57824;SDS011;43912;44.188;21.094;2023-04-03T08:01:44;35.30;;;30.70;;
57824;SDS011;43912;44.188;21.094;2023-04-03T08:04:10;34.85;;;29.40;;
57824;SDS011;43912;44.188;21.094;2023-04-03T08:06:36;36.08;;;30.75;;
57824;SDS011;43912;44.188;21.094;2023-04-03T08:09:03;39.20;;;31.75;;
57824;SDS011;43912;44.188;21.094;2023-04-03T08:11:29;37.15;;;31.67;;
57824;SDS011;43912;44.188;21.094;2023-04-03T08:13:56;36.47;;;31.55;;
57824;SDS011;43912;44.188;21.094;2023-04-03T08:16:22;34.17;;;30.50;;
57824;SDS011;43912;44.188;21.094;2023-04-03T08:18:51;36.97;;;29.05;;
57824;SDS011;43912;44.188;21.094;2023-04-03T08:21:18;36.05;;;32.45;;
57824;SDS011;43912;44.188;21.094;2023-04-03T08:23:44;33.88;;;30.17;;
57824;SDS011;43912;44.188;21.094;2023-04-03T08:26:13;28.17;;;25.17;;
57824;SDS011;43912;44.188;21.094;2023-04-03T08:28:40;27.80;;;24.80;;
57824;SDS011;43912;44.188;21.094;2023-04-03T08:31:07;28.60;;;24.58;;
57824;SDS011;43912;44.188;21.094;2023-04-03T08:33:35;22.25;;;19.88;;
57824;SDS011;43912;44.188;21.094;2023-04-03T08:36:05;22.77;;;20.45;;
57824;SDS011;43912;44.188;21.094;2023-04-03T08:38:32;23.65;;;20.00;;
57824;SDS011;43912;44.188;21.094;2023-04-03T08:41:10;19.15;;;16.30;;
57824;SDS011;43912;44.188;21.094;2023-04-03T08:46:11;16.13;;;14.05;;
57824;SDS011;43912;44.188;21.094;2023-04-03T08:48:41;21.70;;;17.40;;
57824;SDS011;43912;44.188;21.094;2023-04-03T08:51:25;16.83;;;14.13;;
57824;SDS011;43912;44.188;21.094;2023-04-03T08:53:59;16.88;;;14.48;;
57824;SDS011;43912;44.188;21.094;2023-04-03T08:56:27;19.80;;;16.90;;
57824;SDS011;43912;44.188;21.094;2023-04-03T08:58:58;18.42;;;15.63;;
57824;SDS011;43912;44.188;21.094;2023-04-03T09:04:20;17.05;;;14.55;;
57824;SDS011;43912;44.188;21.094;2023-04-03T09:06:51;16.27;;;13.05;;
57824;SDS011;43912;44.188;21.094;2023-04-03T09:09:31;16.00;;;14.10;;
57824;SDS011;43912;44.188;21.094;2023-04-03T09:17:01;18.13;;;15.48;;
57824;SDS011;43912;44.188;21.094;2023-04-03T09:22:43;14.40;;;11.95;;
57824;SDS011;43912;44.188;21.094;2023-04-03T09:24:49;17.02;;;14.20;;
57824;SDS011;43912;44.188;21.094;2023-04-03T09:27:16;15.88;;;12.70;;
57824;SDS011;43912;44.188;21.094;2023-04-03T09:29:43;18.55;;;14.20;;
57824;SDS011;43912;44.188;21.094;2023-04-03T09:32:30;19.20;;;13.73;;
57824;SDS011;43912;44.188;21.094;2023-04-03T09:34:58;16.15;;;12.25;;
57824;SDS011;43912;44.188;21.094;2023-04-03T09:37:35;15.50;;;12.48;;
57824;SDS011;43912;44.188;21.094;2023-04-03T09:40:02;16.35;;;14.13;;
57824;SDS011;43912;44.188;21.094;2023-04-03T09:42:29;16.70;;;13.57;;
57824;SDS011;43912;44.188;21.094;2023-04-03T09:44:59;15.60;;;12.65;;
57824;SDS011;43912;44.188;21.094;2023-04-03T09:52:41;17.50;;;13.82;;
57824;SDS011;43912;44.188;21.094;2023-04-03T09:57:47;20.00;;;16.77;;
57824;SDS011;43912;44.188;21.094;2023-04-03T10:00:25;19.53;;;15.50;;
57824;SDS011;43912;44.188;21.094;2023-04-03T10:02:52;18.05;;;15.63;;
57824;SDS011;43912;44.188;21.094;2023-04-03T10:05:31;15.73;;;13.98;;
57824;SDS011;43912;44.188;21.094;2023-04-03T10:08:17;19.13;;;15.63;;
57824;SDS011;43912;44.188;21.094;2023-04-03T10:10:46;20.83;;;17.10;;
57824;SDS011;43912;44.188;21.094;2023-04-03T10:13:16;19.98;;;16.40;;
57824;SDS011;43912;44.188;21.094;2023-04-03T10:15:55;19.20;;;16.93;;
57824;SDS011;43912;44.188;21.094;2023-04-03T10:21:10;22.58;;;19.40;;
57824;SDS011;43912;44.188;21.094;2023-04-03T10:26:11;20.50;;;18.30;;
57824;SDS011;43912;44.188;21.094;2023-04-03T10:44:20;25.50;;;22.80;;
57824;SDS011;43912;44.188;21.094;2023-04-03T10:46:56;18.77;;;16.77;;
57824;SDS011;43912;44.188;21.094;2023-04-03T10:49:31;19.27;;;16.92;;
57824;SDS011;43912;44.188;21.094;2023-04-03T10:54:37;21.55;;;17.13;;
57824;SDS011;43912;44.188;21.094;2023-04-03T10:57:05;24.08;;;16.23;;
57824;SDS011;43912;44.188;21.094;2023-04-03T10:59:33;19.13;;;14.80;;
57824;SDS011;43912;44.188;21.094;2023-04-03T11:02:06;16.80;;;13.40;;
57824;SDS011;43912;44.188;21.094;2023-04-03T11:04:34;16.90;;;12.73;;
57824;SDS011;43912;44.188;21.094;2023-04-03T11:07:02;20.38;;;13.63;;
57824;SDS011;43912;44.188;21.094;2023-04-03T11:09:31;21.55;;;14.32;;
57824;SDS011;43912;44.188;21.094;2023-04-03T11:12:13;26.25;;;13.63;;
57824;SDS011;43912;44.188;21.094;2023-04-03T11:14:40;19.02;;;13.75;;
57824;SDS011;43912;44.188;21.094;2023-04-03T11:17:41;21.17;;;13.77;;
57824;SDS011;43912;44.188;21.094;2023-04-03T11:22:39;15.80;;;11.18;;
57824;SDS011;43912;44.188;21.094;2023-04-03T11:28:11;12.45;;;9.07;;
57824;SDS011;43912;44.188;21.094;2023-04-03T11:30:41;16.13;;;12.85;;
57824;SDS011;43912;44.188;21.094;2023-04-03T11:36:09;14.27;;;9.20;;
57824;SDS011;43912;44.188;21.094;2023-04-03T11:38:37;11.27;;;8.20;;
57824;SDS011;43912;44.188;21.094;2023-04-03T11:41:07;16.50;;;14.10;;
57824;SDS011;43912;44.188;21.094;2023-04-03T11:43:36;11.07;;;7.93;;
57824;SDS011;43912;44.188;21.094;2023-04-03T11:46:06;11.90;;;8.45;;
57824;SDS011;43912;44.188;21.094;2023-04-03T11:53:41;11.95;;;8.18;;
57824;SDS011;43912;44.188;21.094;2023-04-03T12:01:46;14.73;;;11.07;;
57824;SDS011;43912;44.188;21.094;2023-04-03T12:04:13;14.40;;;10.35;;
57824;SDS011;43912;44.188;21.094;2023-04-03T12:10:14;14.10;;;9.65;;
57824;SDS011;43912;44.188;21.094;2023-04-03T12:12:21;13.60;;;8.88;;
57824;SDS011;43912;44.188;21.094;2023-04-03T12:14:49;10.57;;;7.72;;
57824;SDS011;43912;44.188;21.094;2023-04-03T12:17:27;10.73;;;7.95;;
57824;SDS011;43912;44.188;21.094;2023-04-03T12:19:55;11.70;;;8.63;;
57824;SDS011;43912;44.188;21.094;2023-04-03T12:22:21;14.00;;;8.20;;
57824;SDS011;43912;44.188;21.094;2023-04-03T12:24:49;12.23;;;8.07;;
57824;SDS011;43912;44.188;21.094;2023-04-03T12:27:17;12.45;;;8.82;;
57824;SDS011;43912;44.188;21.094;2023-04-03T12:29:47;23.15;;;14.35;;
57824;SDS011;43912;44.188;21.094;2023-04-03T12:34:56;15.52;;;11.65;;
57824;SDS011;43912;44.188;21.094;2023-04-03T12:40:24;12.75;;;8.32;;
57824;SDS011;43912;44.188;21.094;2023-04-03T12:43:02;21.35;;;13.93;;
57824;SDS011;43912;44.188;21.094;2023-04-03T12:45:44;25.50;;;15.93;;
57824;SDS011;43912;44.188;21.094;2023-04-03T12:48:20;15.15;;;10.80;;
57824;SDS011;43912;44.188;21.094;2023-04-03T12:50:48;14.52;;;10.43;;
57824;SDS011;43912;44.188;21.094;2023-04-03T12:53:16;16.77;;;10.55;;
57824;SDS011;43912;44.188;21.094;2023-04-03T12:55:44;13.93;;;10.00;;
57824;SDS011;43912;44.188;21.094;2023-04-03T12:58:19;10.45;;;7.25;;
57824;SDS011;43912;44.188;21.094;2023-04-03T13:00:47;15.02;;;10.95;;
57824;SDS011;43912;44.188;21.094;2023-04-03T13:03:24;16.92;;;10.82;;
57824;SDS011;43912;44.188;21.094;2023-04-03T13:05:52;16.10;;;11.30;;
57824;SDS011;43912;44.188;21.094;2023-04-03T13:08:18;14.25;;;9.60;;
57824;SDS011;43912;44.188;21.094;2023-04-03T13:10:59;12.38;;;8.13;;
57824;SDS011;43912;44.188;21.094;2023-04-03T13:13:27;18.05;;;11.85;;
57824;SDS011;43912;44.188;21.094;2023-04-03T13:15:53;19.75;;;13.02;;
57824;SDS011;43912;44.188;21.094;2023-04-03T13:20:52;11.90;;;7.40;;
57824;SDS011;43912;44.188;21.094;2023-04-03T13:23:20;14.02;;;10.40;;
57824;SDS011;43912;44.188;21.094;2023-04-03T13:25:48;18.30;;;12.80;;
57824;SDS011;43912;44.188;21.094;2023-04-03T13:28:15;17.20;;;11.65;;
57824;SDS011;43912;44.188;21.094;2023-04-03T13:33:55;13.05;;;9.25;;
57824;SDS011;43912;44.188;21.094;2023-04-03T13:36:23;12.45;;;8.50;;
57824;SDS011;43912;44.188;21.094;2023-04-03T13:41:49;13.23;;;8.55;;
57824;SDS011;43912;44.188;21.094;2023-04-03T13:46:51;9.07;;;5.55;;
57824;SDS011;43912;44.188;21.094;2023-04-03T13:49:20;13.18;;;8.77;;
57824;SDS011;43912;44.188;21.094;2023-04-03T13:51:46;12.52;;;7.93;;
57824;SDS011;43912;44.188;21.094;2023-04-03T13:54:16;11.00;;;6.97;;
57824;SDS011;43912;44.188;21.094;2023-04-03T13:56:43;12.90;;;8.25;;
57824;SDS011;43912;44.188;21.094;2023-04-03T14:01:43;13.27;;;7.15;;
57824;SDS011;43912;44.188;21.094;2023-04-03T14:04:13;12.82;;;6.65;;
57824;SDS011;43912;44.188;21.094;2023-04-03T14:06:39;13.57;;;10.30;;
57824;SDS011;43912;44.188;21.094;2023-04-03T14:09:05;12.38;;;8.20;;
57824;SDS011;43912;44.188;21.094;2023-04-03T14:11:32;11.05;;;8.00;;
57824;SDS011;43912;44.188;21.094;2023-04-03T14:14:00;11.68;;;7.90;;
57824;SDS011;43912;44.188;21.094;2023-04-03T14:16:31;10.93;;;7.38;;
57824;SDS011;43912;44.188;21.094;2023-04-03T14:18:57;9.98;;;7.05;;
57824;SDS011;43912;44.188;21.094;2023-04-03T14:21:24;10.52;;;7.03;;
57824;SDS011;43912;44.188;21.094;2023-04-03T14:23:50;11.23;;;7.03;;
57824;SDS011;43912;44.188;21.094;2023-04-03T14:26:18;10.15;;;7.10;;
57824;SDS011;43912;44.188;21.094;2023-04-03T14:28:46;18.67;;;15.30;;
57824;SDS011;43912;44.188;21.094;2023-04-03T14:31:12;32.00;;;26.10;;
57824;SDS011;43912;44.188;21.094;2023-04-03T14:33:39;15.32;;;11.70;;
57824;SDS011;43912;44.188;21.094;2023-04-03T14:36:27;15.02;;;10.50;;
57824;SDS011;43912;44.188;21.094;2023-04-03T14:38:52;11.63;;;8.07;;
57824;SDS011;43912;44.188;21.094;2023-04-03T14:41:19;13.30;;;9.27;;
57824;SDS011;43912;44.188;21.094;2023-04-03T14:43:46;14.38;;;10.07;;
57824;SDS011;43912;44.188;21.094;2023-04-03T14:46:24;11.77;;;8.02;;
57824;SDS011;43912;44.188;21.094;2023-04-03T14:48:51;12.80;;;8.70;;
57824;SDS011;43912;44.188;21.094;2023-04-03T14:51:17;15.90;;;9.57;;
57824;SDS011;43912;44.188;21.094;2023-04-03T14:53:43;15.52;;;8.73;;
57824;SDS011;43912;44.188;21.094;2023-04-03T14:58:39;18.25;;;11.57;;
57824;SDS011;43912;44.188;21.094;2023-04-03T15:01:05;17.98;;;13.00;;
57824;SDS011;43912;44.188;21.094;2023-04-03T15:03:31;20.63;;;14.15;;
57824;SDS011;43912;44.188;21.094;2023-04-03T15:05:57;17.30;;;10.95;;
57824;SDS011;43912;44.188;21.094;2023-04-03T15:08:24;18.90;;;11.55;;
57824;SDS011;43912;44.188;21.094;2023-04-03T15:10:51;14.93;;;9.93;;
57824;SDS011;43912;44.188;21.094;2023-04-03T15:13:18;18.02;;;11.00;;
57824;SDS011;43912;44.188;21.094;2023-04-03T15:15:45;12.10;;;7.30;;
57824;SDS011;43912;44.188;21.094;2023-04-03T15:18:18;15.98;;;9.07;;
57824;SDS011;43912;44.188;21.094;2023-04-03T15:20:45;17.52;;;12.05;;
57824;SDS011;43912;44.188;21.094;2023-04-03T15:23:13;11.43;;;7.13;;
57824;SDS011;43912;44.188;21.094;2023-04-03T15:25:41;12.35;;;7.72;;
57824;SDS011;43912;44.188;21.094;2023-04-03T15:28:09;14.18;;;7.90;;
57824;SDS011;43912;44.188;21.094;2023-04-03T15:30:36;12.82;;;7.57;;
57824;SDS011;43912;44.188;21.094;2023-04-03T15:33:02;19.67;;;10.57;;
57824;SDS011;43912;44.188;21.094;2023-04-03T15:35:28;15.75;;;8.88;;
57824;SDS011;43912;44.188;21.094;2023-04-03T15:37:54;16.77;;;9.27;;
57824;SDS011;43912;44.188;21.094;2023-04-03T15:46:27;17.15;;;11.38;;
57824;SDS011;43912;44.188;21.094;2023-04-03T15:48:53;22.88;;;15.70;;
57824;SDS011;43912;44.188;21.094;2023-04-03T15:51:19;31.27;;;22.27;;
57824;SDS011;43912;44.188;21.094;2023-04-03T15:53:46;29.23;;;21.85;;
57824;SDS011;43912;44.188;21.094;2023-04-03T15:56:18;19.42;;;12.02;;
57824;SDS011;43912;44.188;21.094;2023-04-03T15:58:44;22.85;;;15.77;;
57824;SDS011;43912;44.188;21.094;2023-04-03T16:01:10;14.05;;;8.52;;
57824;SDS011;43912;44.188;21.094;2023-04-03T16:03:36;14.00;;;7.95;;
57824;SDS011;43912;44.188;21.094;2023-04-03T16:06:08;12.63;;;7.13;;
57824;SDS011;43912;44.188;21.094;2023-04-03T16:08:34;14.20;;;8.85;;
57824;SDS011;43912;44.188;21.094;2023-04-03T16:11:01;11.65;;;7.75;;